Decoded Metar for KLDJ ( in _UNIDENTIFIED) (IATA:N/A) | Meteo·Mobile Aviation Weather
aviador You're here:

KLDJ Decoded Metar

in _UNIDENTIFIED
Report Time2018-10-22 12:55:00
UTC Time2018-10-22 13:52:52
Flight Rules vfr VFR
Wind280° at 03 kt
W.Decomp.*RWY 27: 2.8 kt HW 1.2 kt RCW
W.Rank280° ranks 1
Current wind is below 280° avg. (7.3)
Visibility9999 m
Phenomena:N/A
Clouds:Overcast 120 Hf
Expected CloudBase > 2,800 ft AGL from Temp-Dew spread
Ceiling12,000 ft
Temp06°C (ISA -9)
Dew Point-1°C (61% RH)
AAT2.8°C
QNH1025 hPa
Density Alt-1,385 ft
Elevation23 ft
Report Wrong Elevation
Raw Report
KLDJ 221255Z AUTO 28003KT 10SM OVC120 06/M01 A3027 RMK AO2
T00551008=

Extra information for KLDJ:More info

Metar Taf Metar & Taf Last 4 Metars F.Rules Stats Wind Profile Meteogram Temp Stats Metar ALERT Operation Metar Decoded Social comments